sensor_id;sensor_type;location;lat;lon;timestamp;pressure;altitude;pressure_sealevel;temperature;humidity
20628;BME280;10473;42.734;24.258;2022-11-20T00:02:16;91322.94;;;15.34;68.96
20628;BME280;10473;42.734;24.258;2022-11-20T00:04:44;91328.94;;;15.41;68.47
20628;BME280;10473;42.734;24.258;2022-11-20T00:07:14;91319.13;;;15.35;68.30
20628;BME280;10473;42.734;24.258;2022-11-20T00:09:42;91340.94;;;15.30;69.05
20628;BME280;10473;42.734;24.258;2022-11-20T00:12:09;91331.66;;;15.38;68.90
20628;BME280;10473;42.734;24.258;2022-11-20T00:14:37;91330.84;;;15.41;68.85
20628;BME280;10473;42.734;24.258;2022-11-20T00:17:05;91338.56;;;15.35;68.84
20628;BME280;10473;42.734;24.258;2022-11-20T00:19:34;91333.25;;;15.32;68.93
20628;BME280;10473;42.734;24.258;2022-11-20T00:22:04;91325.59;;;15.34;68.66
20628;BME280;10473;42.734;24.258;2022-11-20T00:24:33;91322.38;;;15.46;68.61
20628;BME280;10473;42.734;24.258;2022-11-20T00:27:01;91323.88;;;15.47;68.15
20628;BME280;10473;42.734;24.258;2022-11-20T00:29:29;91321.88;;;15.51;68.00
20628;BME280;10473;42.734;24.258;2022-11-20T00:31:57;91330.66;;;15.51;68.03
20628;BME280;10473;42.734;24.258;2022-11-20T00:34:25;91327.63;;;15.26;68.85
20628;BME280;10473;42.734;24.258;2022-11-20T00:36:53;91333.44;;;15.44;68.02
20628;BME280;10473;42.734;24.258;2022-11-20T00:39:20;91327.31;;;15.47;67.97
20628;BME280;10473;42.734;24.258;2022-11-20T00:41:50;91337.81;;;15.35;68.29
20628;BME280;10473;42.734;24.258;2022-11-20T00:44:18;91328.50;;;15.20;68.22
20628;BME280;10473;42.734;24.258;2022-11-20T00:46:46;91332.16;;;15.29;67.94
20628;BME280;10473;42.734;24.258;2022-11-20T00:49:14;91327.84;;;15.39;67.51
20628;BME280;10473;42.734;24.258;2022-11-20T00:51:42;91334.13;;;15.48;67.23
20628;BME280;10473;42.734;24.258;2022-11-20T00:54:10;91328.34;;;15.53;66.65
20628;BME280;10473;42.734;24.258;2022-11-20T00:56:40;91328.88;;;15.64;66.65
20628;BME280;10473;42.734;24.258;2022-11-20T00:59:10;91322.19;;;15.76;66.28
20628;BME280;10473;42.734;24.258;2022-11-20T01:01:39;91331.00;;;15.73;65.77
20628;BME280;10473;42.734;24.258;2022-11-20T01:04:07;91330.91;;;15.80;65.77
20628;BME280;10473;42.734;24.258;2022-11-20T01:06:37;91311.84;;;15.78;65.78
20628;BME280;10473;42.734;24.258;2022-11-20T01:09:06;91314.25;;;15.92;65.37
20628;BME280;10473;42.734;24.258;2022-11-20T01:11:36;91313.28;;;15.82;65.40
20628;BME280;10473;42.734;24.258;2022-11-20T01:14:06;91310.88;;;15.88;65.61
20628;BME280;10473;42.734;24.258;2022-11-20T01:16:38;91304.03;;;15.87;65.45
20628;BME280;10473;42.734;24.258;2022-11-20T01:19:07;91301.03;;;15.85;65.57
20628;BME280;10473;42.734;24.258;2022-11-20T01:21:40;91310.13;;;15.68;65.85
20628;BME280;10473;42.734;24.258;2022-11-20T01:24:11;91325.13;;;15.62;66.19
20628;BME280;10473;42.734;24.258;2022-11-20T01:26:41;91325.00;;;15.69;66.41
20628;BME280;10473;42.734;24.258;2022-11-20T01:29:13;91322.66;;;15.71;66.48
20628;BME280;10473;42.734;24.258;2022-11-20T01:31:42;91329.97;;;15.67;66.78
20628;BME280;10473;42.734;24.258;2022-11-20T01:34:12;91317.31;;;15.71;66.78
20628;BME280;10473;42.734;24.258;2022-11-20T01:36:41;91313.63;;;15.65;66.92
20628;BME280;10473;42.734;24.258;2022-11-20T01:39:11;91317.00;;;15.69;66.92
20628;BME280;10473;42.734;24.258;2022-11-20T01:41:39;91283.56;;;15.41;66.98
20628;BME280;10473;42.734;24.258;2022-11-20T01:44:43;91320.03;;;15.48;67.73
20628;BME280;10473;42.734;24.258;2022-11-20T01:47:17;91318.94;;;15.45;67.90
20628;BME280;10473;42.734;24.258;2022-11-20T01:49:50;91314.28;;;15.49;68.04
20628;BME280;10473;42.734;24.258;2022-11-20T01:52:21;91304.00;;;15.48;67.67
20628;BME280;10473;42.734;24.258;2022-11-20T01:54:55;91306.97;;;15.53;67.85
20628;BME280;10473;42.734;24.258;2022-11-20T01:57:28;91309.44;;;15.64;67.40
20628;BME280;10473;42.734;24.258;2022-11-20T02:00:03;91304.78;;;15.48;68.11
20628;BME280;10473;42.734;24.258;2022-11-20T02:02:42;91303.19;;;15.51;67.93
20628;BME280;10473;42.734;24.258;2022-11-20T02:05:16;91291.34;;;15.52;67.74
20628;BME280;10473;42.734;24.258;2022-11-20T02:07:47;91298.00;;;15.44;67.93
20628;BME280;10473;42.734;24.258;2022-11-20T02:10:15;91296.28;;;15.53;67.96
20628;BME280;10473;42.734;24.258;2022-11-20T02:12:43;91290.94;;;15.53;67.83
20628;BME280;10473;42.734;24.258;2022-11-20T02:15:29;91285.59;;;15.53;67.79
20628;BME280;10473;42.734;24.258;2022-11-20T02:17:58;91292.53;;;15.51;67.75
20628;BME280;10473;42.734;24.258;2022-11-20T02:20:26;91286.41;;;15.50;68.21
20628;BME280;10473;42.734;24.258;2022-11-20T02:22:57;91283.81;;;15.47;67.84
20628;BME280;10473;42.734;24.258;2022-11-20T02:25:29;91294.63;;;15.40;68.06
20628;BME280;10473;42.734;24.258;2022-11-20T02:27:58;91289.78;;;15.31;68.54
20628;BME280;10473;42.734;24.258;2022-11-20T02:30:26;91271.34;;;15.40;68.18
20628;BME280;10473;42.734;24.258;2022-11-20T02:32:54;91285.16;;;15.35;68.15
20628;BME280;10473;42.734;24.258;2022-11-20T02:35:44;91276.50;;;15.28;68.58
20628;BME280;10473;42.734;24.258;2022-11-20T02:38:13;91270.75;;;15.29;68.63
20628;BME280;10473;42.734;24.258;2022-11-20T02:40:42;91274.84;;;15.37;67.91
20628;BME280;10473;42.734;24.258;2022-11-20T02:43:10;91280.59;;;15.36;68.31
20628;BME280;10473;42.734;24.258;2022-11-20T02:45:38;91272.91;;;15.38;68.07
20628;BME280;10473;42.734;24.258;2022-11-20T02:48:06;91274.09;;;15.37;68.23
20628;BME280;10473;42.734;24.258;2022-11-20T02:50:37;91273.75;;;15.31;68.28
20628;BME280;10473;42.734;24.258;2022-11-20T02:53:05;91289.91;;;15.24;68.85
20628;BME280;10473;42.734;24.258;2022-11-20T02:55:33;91282.25;;;15.26;68.57
20628;BME280;10473;42.734;24.258;2022-11-20T02:58:02;91281.78;;;15.31;68.57
20628;BME280;10473;42.734;24.258;2022-11-20T03:00:30;91278.06;;;15.25;68.57
20628;BME280;10473;42.734;24.258;2022-11-20T03:02:58;91269.03;;;15.19;68.38
20628;BME280;10473;42.734;24.258;2022-11-20T03:05:25;91276.97;;;15.23;68.72
20628;BME280;10473;42.734;24.258;2022-11-20T03:07:53;91286.78;;;15.29;68.54
20628;BME280;10473;42.734;24.258;2022-11-20T03:10:21;91290.94;;;15.30;68.54
20628;BME280;10473;42.734;24.258;2022-11-20T03:12:52;91282.53;;;15.32;68.46
20628;BME280;10473;42.734;24.258;2022-11-20T03:15:23;91290.53;;;15.32;68.35
20628;BME280;10473;42.734;24.258;2022-11-20T03:17:53;91272.22;;;15.34;68.45
20628;BME280;10473;42.734;24.258;2022-11-20T03:20:22;91285.94;;;15.36;68.49
20628;BME280;10473;42.734;24.258;2022-11-20T03:22:49;91277.84;;;15.39;68.06
20628;BME280;10473;42.734;24.258;2022-11-20T03:25:17;91293.53;;;15.37;68.72
20628;BME280;10473;42.734;24.258;2022-11-20T03:27:45;91280.41;;;15.46;68.20
20628;BME280;10473;42.734;24.258;2022-11-20T03:30:13;91290.31;;;15.46;68.42
20628;BME280;10473;42.734;24.258;2022-11-20T03:32:43;91291.56;;;15.41;68.27
20628;BME280;10473;42.734;24.258;2022-11-20T03:35:11;91306.41;;;15.42;68.44
20628;BME280;10473;42.734;24.258;2022-11-20T03:37:39;91300.66;;;15.44;68.11
20628;BME280;10473;42.734;24.258;2022-11-20T03:40:07;91325.78;;;15.46;68.38
20628;BME280;10473;42.734;24.258;2022-11-20T03:42:35;91322.28;;;15.49;68.09
20628;BME280;10473;42.734;24.258;2022-11-20T03:45:16;91310.41;;;15.54;67.87
20628;BME280;10473;42.734;24.258;2022-11-20T03:47:45;91313.00;;;15.57;67.77
20628;BME280;10473;42.734;24.258;2022-11-20T03:50:14;91335.78;;;15.62;67.56
20628;BME280;10473;42.734;24.258;2022-11-20T03:52:41;91333.50;;;15.64;67.70
20628;BME280;10473;42.734;24.258;2022-11-20T03:55:09;91319.69;;;15.65;67.51
20628;BME280;10473;42.734;24.258;2022-11-20T03:57:37;91317.19;;;15.58;67.95
20628;BME280;10473;42.734;24.258;2022-11-20T04:00:06;91304.44;;;15.66;67.55
20628;BME280;10473;42.734;24.258;2022-11-20T04:02:34;91308.53;;;15.70;67.60
20628;BME280;10473;42.734;24.258;2022-11-20T04:05:03;91312.94;;;15.61;67.89
20628;BME280;10473;42.734;24.258;2022-11-20T04:07:33;91311.75;;;15.62;67.88
20628;BME280;10473;42.734;24.258;2022-11-20T04:10:01;91307.53;;;15.64;67.73
20628;BME280;10473;42.734;24.258;2022-11-20T04:12:32;91302.09;;;15.68;67.21
20628;BME280;10473;42.734;24.258;2022-11-20T04:14:59;91307.19;;;15.62;67.97
20628;BME280;10473;42.734;24.258;2022-11-20T04:17:27;91310.59;;;15.63;67.70
20628;BME280;10473;42.734;24.258;2022-11-20T04:19:55;91316.94;;;15.49;67.58
20628;BME280;10473;42.734;24.258;2022-11-20T04:22:24;91315.06;;;15.50;66.53
20628;BME280;10473;42.734;24.258;2022-11-20T04:24:52;91324.00;;;15.59;66.79
20628;BME280;10473;42.734;24.258;2022-11-20T04:27:20;91312.13;;;15.64;67.57
20628;BME280;10473;42.734;24.258;2022-11-20T04:29:47;91309.31;;;15.71;67.91
20628;BME280;10473;42.734;24.258;2022-11-20T04:32:15;91313.63;;;15.65;67.82
20628;BME280;10473;42.734;24.258;2022-11-20T04:34:43;91306.03;;;15.63;67.20
20628;BME280;10473;42.734;24.258;2022-11-20T04:37:10;91317.41;;;15.67;66.51
20628;BME280;10473;42.734;24.258;2022-11-20T04:39:40;91309.09;;;15.62;66.85
20628;BME280;10473;42.734;24.258;2022-11-20T04:42:08;91307.25;;;15.59;67.07
20628;BME280;10473;42.734;24.258;2022-11-20T04:44:53;91316.78;;;15.60;66.78
20628;BME280;10473;42.734;24.258;2022-11-20T04:47:21;91298.41;;;15.62;66.95
20628;BME280;10473;42.734;24.258;2022-11-20T04:49:49;91311.28;;;15.67;66.48
20628;BME280;10473;42.734;24.258;2022-11-20T04:52:17;91307.81;;;15.70;66.18
20628;BME280;10473;42.734;24.258;2022-11-20T04:54:46;91297.44;;;15.72;65.77
20628;BME280;10473;42.734;24.258;2022-11-20T04:57:14;91291.31;;;15.75;65.77
20628;BME280;10473;42.734;24.258;2022-11-20T04:59:42;91284.47;;;15.74;65.41
20628;BME280;10473;42.734;24.258;2022-11-20T05:02:10;91293.00;;;15.85;65.58
20628;BME280;10473;42.734;24.258;2022-11-20T05:04:38;91291.03;;;15.89;65.53
20628;BME280;10473;42.734;24.258;2022-11-20T05:07:06;91299.38;;;15.91;65.38
20628;BME280;10473;42.734;24.258;2022-11-20T05:09:33;91306.00;;;15.83;65.10
20628;BME280;10473;42.734;24.258;2022-11-20T05:12:03;91296.41;;;15.85;65.73
20628;BME280;10473;42.734;24.258;2022-11-20T05:14:31;91296.69;;;15.91;65.43
20628;BME280;10473;42.734;24.258;2022-11-20T05:16:58;91296.00;;;15.87;66.14
20628;BME280;10473;42.734;24.258;2022-11-20T05:19:26;91290.34;;;15.85;66.47
20628;BME280;10473;42.734;24.258;2022-11-20T05:21:54;91296.38;;;15.89;65.57
20628;BME280;10473;42.734;24.258;2022-11-20T05:24:21;91285.31;;;15.87;65.48
20628;BME280;10473;42.734;24.258;2022-11-20T05:26:49;91283.44;;;15.87;65.32
20628;BME280;10473;42.734;24.258;2022-11-20T05:29:18;91297.13;;;15.89;65.55
20628;BME280;10473;42.734;24.258;2022-11-20T05:31:46;91310.88;;;15.88;65.13
20628;BME280;10473;42.734;24.258;2022-11-20T05:34:14;91312.41;;;15.89;65.26
20628;BME280;10473;42.734;24.258;2022-11-20T05:36:41;91307.47;;;15.87;65.23
20628;BME280;10473;42.734;24.258;2022-11-20T05:39:09;91306.59;;;15.94;65.06
20628;BME280;10473;42.734;24.258;2022-11-20T05:41:37;91307.94;;;15.82;65.06
20628;BME280;10473;42.734;24.258;2022-11-20T05:44:05;91316.03;;;15.79;65.64
20628;BME280;10473;42.734;24.258;2022-11-20T05:46:34;91314.97;;;15.73;65.68
20628;BME280;10473;42.734;24.258;2022-11-20T05:49:01;91304.19;;;15.80;65.98
20628;BME280;10473;42.734;24.258;2022-11-20T05:51:29;91304.56;;;15.98;66.17
20628;BME280;10473;42.734;24.258;2022-11-20T05:53:57;91314.16;;;16.15;66.09
20628;BME280;10473;42.734;24.258;2022-11-20T05:56:25;91320.47;;;16.44;66.31
20628;BME280;10473;42.734;24.258;2022-11-20T05:58:52;91316.31;;;16.75;66.18
20628;BME280;10473;42.734;24.258;2022-11-20T06:01:21;91332.31;;;17.10;64.38
20628;BME280;10473;42.734;24.258;2022-11-20T06:03:51;91329.59;;;17.46;63.31
20628;BME280;10473;42.734;24.258;2022-11-20T06:06:20;91340.66;;;17.76;62.33
20628;BME280;10473;42.734;24.258;2022-11-20T06:08:48;91337.47;;;18.10;61.22
20628;BME280;10473;42.734;24.258;2022-11-20T06:11:17;91336.22;;;18.27;59.84
20628;BME280;10473;42.734;24.258;2022-11-20T06:13:45;91335.56;;;17.94;59.73
20628;BME280;10473;42.734;24.258;2022-11-20T06:16:15;91333.16;;;17.84;60.32
20628;BME280;10473;42.734;24.258;2022-11-20T06:18:44;91339.84;;;17.92;60.18
20628;BME280;10473;42.734;24.258;2022-11-20T06:21:14;91342.69;;;18.01;60.02
20628;BME280;10473;42.734;24.258;2022-11-20T06:23:43;91339.78;;;18.36;59.95
20628;BME280;10473;42.734;24.258;2022-11-20T06:26:13;91342.63;;;18.70;57.94
20628;BME280;10473;42.734;24.258;2022-11-20T06:28:41;91349.00;;;19.01;57.94
20628;BME280;10473;42.734;24.258;2022-11-20T06:31:10;91358.44;;;19.18;57.13
20628;BME280;10473;42.734;24.258;2022-11-20T06:33:38;91353.31;;;19.24;56.69
20628;BME280;10473;42.734;24.258;2022-11-20T06:36:06;91357.25;;;19.19;56.16
20628;BME280;10473;42.734;24.258;2022-11-20T06:38:35;91362.22;;;19.46;55.33
20628;BME280;10473;42.734;24.258;2022-11-20T06:41:04;91347.56;;;19.59;54.77
20628;BME280;10473;42.734;24.258;2022-11-20T06:43:33;91361.06;;;19.81;54.44
20628;BME280;10473;42.734;24.258;2022-11-20T06:46:01;91369.56;;;19.67;53.90
20628;BME280;10473;42.734;24.258;2022-11-20T06:48:29;91370.56;;;19.73;54.20
20628;BME280;10473;42.734;24.258;2022-11-20T06:50:57;91369.75;;;19.85;54.72
20628;BME280;10473;42.734;24.258;2022-11-20T06:53:25;91369.16;;;19.68;54.74
20628;BME280;10473;42.734;24.258;2022-11-20T06:55:56;91367.38;;;19.53;54.79
20628;BME280;10473;42.734;24.258;2022-11-20T06:58:26;91373.19;;;19.14;55.76
20628;BME280;10473;42.734;24.258;2022-11-20T07:00:58;91381.09;;;18.80;56.73
20628;BME280;10473;42.734;24.258;2022-11-20T07:03:26;91366.09;;;18.95;56.72
20628;BME280;10473;42.734;24.258;2022-11-20T07:05:54;91352.75;;;19.54;55.78
20628;BME280;10473;42.734;24.258;2022-11-20T07:08:22;91363.75;;;20.15;54.34
20628;BME280;10473;42.734;24.258;2022-11-20T07:10:58;91357.06;;;20.41;52.36
20628;BME280;10473;42.734;24.258;2022-11-20T07:13:27;91370.09;;;20.64;52.72
20628;BME280;10473;42.734;24.258;2022-11-20T07:15:59;91355.25;;;20.81;51.16
20628;BME280;10473;42.734;24.258;2022-11-20T07:18:28;91367.97;;;20.59;51.63
20628;BME280;10473;42.734;24.258;2022-11-20T07:20:55;91369.94;;;20.03;52.60
20628;BME280;10473;42.734;24.258;2022-11-20T07:23:23;91377.00;;;19.75;54.11
20628;BME280;10473;42.734;24.258;2022-11-20T07:25:52;91380.50;;;19.26;54.83
20628;BME280;10473;42.734;24.258;2022-11-20T07:28:23;91332.53;;;18.62;55.89
20628;BME280;10473;42.734;24.258;2022-11-20T07:30:51;91382.16;;;18.70;56.68
20628;BME280;10473;42.734;24.258;2022-11-20T07:33:20;91379.97;;;18.40;57.64
20628;BME280;10473;42.734;24.258;2022-11-20T07:35:48;91389.56;;;18.09;58.57
20628;BME280;10473;42.734;24.258;2022-11-20T07:38:16;91391.34;;;17.99;59.96
20628;BME280;10473;42.734;24.258;2022-11-20T07:40:47;91383.69;;;17.85;60.16
20628;BME280;10473;42.734;24.258;2022-11-20T07:43:15;91379.78;;;17.58;61.42
20628;BME280;10473;42.734;24.258;2022-11-20T07:45:44;91370.09;;;17.48;61.86
20628;BME280;10473;42.734;24.258;2022-11-20T07:48:12;91370.91;;;17.29;62.75
20628;BME280;10473;42.734;24.258;2022-11-20T07:50:40;91368.31;;;17.25;63.01
20628;BME280;10473;42.734;24.258;2022-11-20T07:53:07;91379.75;;;17.10;63.75
20628;BME280;10473;42.734;24.258;2022-11-20T07:55:35;91386.97;;;17.13;63.93
20628;BME280;10473;42.734;24.258;2022-11-20T07:58:03;91375.31;;;17.03;64.11
20628;BME280;10473;42.734;24.258;2022-11-20T08:00:31;91377.72;;;16.82;64.85
20628;BME280;10473;42.734;24.258;2022-11-20T08:03:02;91369.66;;;16.66;64.79
20628;BME280;10473;42.734;24.258;2022-11-20T08:05:30;91373.66;;;16.58;65.39
20628;BME280;10473;42.734;24.258;2022-11-20T08:07:58;91383.50;;;16.61;65.07
20628;BME280;10473;42.734;24.258;2022-11-20T08:10:26;91386.19;;;16.61;65.45
20628;BME280;10473;42.734;24.258;2022-11-20T08:12:53;91389.53;;;16.65;65.47
20628;BME280;10473;42.734;24.258;2022-11-20T08:15:39;91383.56;;;16.77;65.09
20628;BME280;10473;42.734;24.258;2022-11-20T08:18:10;91381.72;;;16.74;65.17
20628;BME280;10473;42.734;24.258;2022-11-20T08:20:39;91378.22;;;16.77;65.03
20628;BME280;10473;42.734;24.258;2022-11-20T08:23:07;91381.25;;;16.95;65.10
20628;BME280;10473;42.734;24.258;2022-11-20T08:25:36;91378.84;;;17.00;64.67
20628;BME280;10473;42.734;24.258;2022-11-20T08:28:05;91382.84;;;17.08;65.00
20628;BME280;10473;42.734;24.258;2022-11-20T08:30:34;91384.47;;;17.22;64.43
20628;BME280;10473;42.734;24.258;2022-11-20T08:33:03;91378.44;;;17.34;64.80
20628;BME280;10473;42.734;24.258;2022-11-20T08:35:34;91380.09;;;17.28;63.35
20628;BME280;10473;42.734;24.258;2022-11-20T08:38:02;91376.59;;;17.31;63.62
20628;BME280;10473;42.734;24.258;2022-11-20T08:40:31;91389.00;;;17.41;64.14
20628;BME280;10473;42.734;24.258;2022-11-20T08:42:59;91386.66;;;17.43;63.86
20628;BME280;10473;42.734;24.258;2022-11-20T08:45:27;91381.19;;;17.30;64.09
20628;BME280;10473;42.734;24.258;2022-11-20T08:48:00;91375.84;;;17.46;63.82
20628;BME280;10473;42.734;24.258;2022-11-20T08:50:28;91374.09;;;17.40;63.29
20628;BME280;10473;42.734;24.258;2022-11-20T08:53:03;91373.41;;;17.36;63.58
20628;BME280;10473;42.734;24.258;2022-11-20T08:55:31;91365.72;;;17.22;64.45
20628;BME280;10473;42.734;24.258;2022-11-20T08:58:03;91352.06;;;17.16;64.95
20628;BME280;10473;42.734;24.258;2022-11-20T09:00:30;91349.47;;;17.29;64.63
20628;BME280;10473;42.734;24.258;2022-11-20T09:02:59;91349.22;;;17.23;64.36
20628;BME280;10473;42.734;24.258;2022-11-20T09:05:32;91334.56;;;17.28;63.86
20628;BME280;10473;42.734;24.258;2022-11-20T09:08:03;91346.47;;;17.43;64.00
20628;BME280;10473;42.734;24.258;2022-11-20T09:10:31;91346.22;;;17.53;64.07
20628;BME280;10473;42.734;24.258;2022-11-20T09:13:00;91339.53;;;17.45;64.49
20628;BME280;10473;42.734;24.258;2022-11-20T09:15:28;91339.44;;;17.49;64.27
20628;BME280;10473;42.734;24.258;2022-11-20T09:17:56;91340.81;;;17.41;63.92
20628;BME280;10473;42.734;24.258;2022-11-20T09:20:25;91331.91;;;17.28;64.31
20628;BME280;10473;42.734;24.258;2022-11-20T09:22:53;91334.00;;;17.20;64.87
20628;BME280;10473;42.734;24.258;2022-11-20T09:25:22;91325.13;;;17.07;65.13
20628;BME280;10473;42.734;24.258;2022-11-20T09:27:54;91316.78;;;17.05;64.67
20628;BME280;10473;42.734;24.258;2022-11-20T09:30:22;91325.78;;;17.11;64.89
20628;BME280;10473;42.734;24.258;2022-11-20T09:32:50;91327.88;;;17.04;65.04
20628;BME280;10473;42.734;24.258;2022-11-20T09:35:18;91319.69;;;17.11;65.22
20628;BME280;10473;42.734;24.258;2022-11-20T09:37:46;91299.63;;;17.03;65.18
20628;BME280;10473;42.734;24.258;2022-11-20T09:40:19;91321.25;;;17.08;65.64
20628;BME280;10473;42.734;24.258;2022-11-20T09:42:56;91319.03;;;17.07;65.59
20628;BME280;10473;42.734;24.258;2022-11-20T09:45:37;91324.53;;;17.00;65.70
20628;BME280;10473;42.734;24.258;2022-11-20T09:48:48;91323.72;;;17.03;65.45
20628;BME280;10473;42.734;24.258;2022-11-20T09:51:33;91317.19;;;17.04;64.01
20628;BME280;10473;42.734;24.258;2022-11-20T09:54:12;91312.81;;;17.10;63.49
20628;BME280;10473;42.734;24.258;2022-11-20T09:56:43;91306.56;;;17.16;63.31
20628;BME280;10473;42.734;24.258;2022-11-20T09:59:23;91311.06;;;17.35;62.12
20628;BME280;10473;42.734;24.258;2022-11-20T10:01:55;91303.69;;;17.55;61.55
20628;BME280;10473;42.734;24.258;2022-11-20T10:04:24;91310.53;;;17.56;61.15
20628;BME280;10473;42.734;24.258;2022-11-20T10:06:56;91306.63;;;17.61;61.33
20628;BME280;10473;42.734;24.258;2022-11-20T10:09:30;91306.47;;;17.52;60.95
20628;BME280;10473;42.734;24.258;2022-11-20T10:12:09;91295.22;;;17.57;60.67
20628;BME280;10473;42.734;24.258;2022-11-20T10:14:54;91305.25;;;17.69;60.42
20628;BME280;10473;42.734;24.258;2022-11-20T10:17:35;91298.84;;;17.79;60.39
20628;BME280;10473;42.734;24.258;2022-11-20T10:20:16;91302.69;;;17.78;59.73
20628;BME280;10473;42.734;24.258;2022-11-20T10:22:58;91296.81;;;17.83;59.71
20628;BME280;10473;42.734;24.258;2022-11-20T10:25:37;91299.97;;;17.65;60.08
20628;BME280;10473;42.734;24.258;2022-11-20T10:28:23;91293.84;;;17.65;60.76
20628;BME280;10473;42.734;24.258;2022-11-20T10:31:00;91281.75;;;17.60;60.64
20628;BME280;10473;42.734;24.258;2022-11-20T10:33:32;91290.50;;;17.77;60.50
20628;BME280;10473;42.734;24.258;2022-11-20T10:36:09;91292.81;;;17.75;61.18
20628;BME280;10473;42.734;24.258;2022-11-20T10:38:43;91283.59;;;17.63;60.21
20628;BME280;10473;42.734;24.258;2022-11-20T10:41:17;91287.94;;;17.57;60.89
20628;BME280;10473;42.734;24.258;2022-11-20T10:44:00;91284.94;;;17.55;60.97
20628;BME280;10473;42.734;24.258;2022-11-20T10:46:36;91280.97;;;17.60;61.30
20628;BME280;10473;42.734;24.258;2022-11-20T10:49:12;91276.00;;;17.46;61.51
20628;BME280;10473;42.734;24.258;2022-11-20T10:51:49;91281.16;;;17.53;61.33
20628;BME280;10473;42.734;24.258;2022-11-20T10:54:29;91279.88;;;17.57;61.55
20628;BME280;10473;42.734;24.258;2022-11-20T10:57:07;91267.47;;;17.51;61.63
20628;BME280;10473;42.734;24.258;2022-11-20T10:59:58;91262.56;;;17.62;60.83
20628;BME280;10473;42.734;24.258;2022-11-20T11:02:36;91281.69;;;17.48;62.02
20628;BME280;10473;42.734;24.258;2022-11-20T11:05:17;91281.69;;;17.48;62.55
20628;BME280;10473;42.734;24.258;2022-11-20T11:07:50;91276.56;;;17.53;62.41
20628;BME280;10473;42.734;24.258;2022-11-20T11:10:21;91267.94;;;17.62;61.54
20628;BME280;10473;42.734;24.258;2022-11-20T11:12:50;91261.81;;;17.61;61.55
20628;BME280;10473;42.734;24.258;2022-11-20T11:15:28;91262.09;;;17.51;61.88
20628;BME280;10473;42.734;24.258;2022-11-20T11:17:58;91266.06;;;17.59;62.42
20628;BME280;10473;42.734;24.258;2022-11-20T11:20:26;91258.75;;;17.47;61.62
20628;BME280;10473;42.734;24.258;2022-11-20T11:22:55;91256.75;;;17.51;61.70
20628;BME280;10473;42.734;24.258;2022-11-20T11:25:27;91254.28;;;17.56;61.21
20628;BME280;10473;42.734;24.258;2022-11-20T11:28:00;91253.72;;;17.49;60.46
20628;BME280;10473;42.734;24.258;2022-11-20T11:30:29;91240.66;;;17.51;60.27
20628;BME280;10473;42.734;24.258;2022-11-20T11:33:09;91245.81;;;17.58;60.50
20628;BME280;10473;42.734;24.258;2022-11-20T11:35:45;91242.84;;;17.56;60.35
20628;BME280;10473;42.734;24.258;2022-11-20T11:38:16;91242.59;;;17.50;60.25
20628;BME280;10473;42.734;24.258;2022-11-20T11:40:46;91239.28;;;17.59;60.28
20628;BME280;10473;42.734;24.258;2022-11-20T11:43:20;91236.50;;;17.62;60.27
20628;BME280;10473;42.734;24.258;2022-11-20T11:46:30;91234.72;;;17.72;60.07
20628;BME280;10473;42.734;24.258;2022-11-20T11:49:08;91231.53;;;17.77;59.49
20628;BME280;10473;42.734;24.258;2022-11-20T11:51:47;91242.16;;;17.80;59.20
20628;BME280;10473;42.734;24.258;2022-11-20T11:54:24;91234.66;;;17.88;58.46
20628;BME280;10473;42.734;24.258;2022-11-20T11:56:54;91239.19;;;17.91;57.69
20628;BME280;10473;42.734;24.258;2022-11-20T11:59:32;91223.41;;;17.93;57.59
20628;BME280;10473;42.734;24.258;2022-11-20T12:02:15;91211.19;;;17.92;57.45
20628;BME280;10473;42.734;24.258;2022-11-20T12:04:52;91212.50;;;18.00;57.48
20628;BME280;10473;42.734;24.258;2022-11-20T12:07:36;91220.34;;;18.19;57.70
20628;BME280;10473;42.734;24.258;2022-11-20T12:10:14;91199.63;;;17.95;57.31
20628;BME280;10473;42.734;24.258;2022-11-20T12:12:45;91213.13;;;18.04;58.15
20628;BME280;10473;42.734;24.258;2022-11-20T12:15:25;91204.22;;;17.94;57.72
20628;BME280;10473;42.734;24.258;2022-11-20T12:17:53;91222.19;;;17.81;57.56
20628;BME280;10473;42.734;24.258;2022-11-20T12:20:27;91217.22;;;17.96;58.28
20628;BME280;10473;42.734;24.258;2022-11-20T12:23:02;91216.22;;;17.90;58.78
20628;BME280;10473;42.734;24.258;2022-11-20T12:25:36;91220.66;;;17.68;59.68
20628;BME280;10473;42.734;24.258;2022-11-20T12:28:22;91227.50;;;17.56;61.08
20628;BME280;10473;42.734;24.258;2022-11-20T12:31:10;91230.03;;;17.47;61.96
20628;BME280;10473;42.734;24.258;2022-11-20T12:34:04;91228.72;;;17.39;62.46
20628;BME280;10473;42.734;24.258;2022-11-20T12:36:49;91219.84;;;17.26;62.90
20628;BME280;10473;42.734;24.258;2022-11-20T12:39:34;91221.91;;;17.35;63.75
20628;BME280;10473;42.734;24.258;2022-11-20T12:42:26;91227.63;;;17.21;62.92
20628;BME280;10473;42.734;24.258;2022-11-20T12:48:30;91234.69;;;17.15;64.06
20628;BME280;10473;42.734;24.258;2022-11-20T12:51:27;91235.84;;;17.14;64.17
20628;BME280;10473;42.734;24.258;2022-11-20T12:54:33;91235.19;;;17.10;64.48
20628;BME280;10473;42.734;24.258;2022-11-20T12:57:09;91231.88;;;16.90;65.70
20628;BME280;10473;42.734;24.258;2022-11-20T13:00:02;91235.81;;;16.85;65.80
20628;BME280;10473;42.734;24.258;2022-11-20T13:02:46;91233.22;;;16.82;67.54
20628;BME280;10473;42.734;24.258;2022-11-20T13:05:28;91262.81;;;16.75;69.32
20628;BME280;10473;42.734;24.258;2022-11-20T13:08:00;91246.59;;;16.66;71.61
20628;BME280;10473;42.734;24.258;2022-11-20T13:10:36;91244.41;;;16.61;72.82
20628;BME280;10473;42.734;24.258;2022-11-20T13:13:14;91272.06;;;16.54;74.05
20628;BME280;10473;42.734;24.258;2022-11-20T13:15:50;91277.00;;;16.40;75.33
20628;BME280;10473;42.734;24.258;2022-11-20T13:18:22;91299.09;;;16.05;78.15